NWS Home NWS Lubbock West Texas Mesonet Three hour changes as of 0718 AM, Wed Dec 02, 2020

Latest   N   C   S   Daily Sum   3hrΔ   24hrΔ   Soil Data 
Site Map   24hr Precip   72hr Precip   Google Plot


Station Time of Last Temp Now Temp 3h ago Delta-T Dewpoint Now Dewpoint 3hr ago Delta-Td 3hr Press Change (mB)
Reese Center  07:10 AM 32.2 34.9 -2.6 24.9 22.9 2 2.8
Abernathy  07:00 AM 30.3 33.3 -3 22.9 20.1 2.7 2.7
Plainview  07:10 AM 34.3 33.5 0.8 23.7 19.8 3.9 2.5
Tahoka  07:10 AM 32.9 35.8 -3 23.3 18.7 4.7 2.6
Slaton  07:10 AM 33.1 36 -2.9 21.4 19.1 2.3 2.9
Levelland  07:10 AM 32.4 35.1 -2.6 24.6 24.4 0.1 2.4
Roaring Springs  07:10 AM 36.7 38.8 -2.1 25.3 23.3 2 2.5
Floydada  07:10 AM 34.2 33.6 0.6 21.6 18.6 3 2.5
Ralls  07:10 AM 34.4 34.6 -0.2 19.4 17.8 1.6 2.7
Brownfield  07:10 AM 33.9 36.3 -2.4 24.6 22.2 2.4 2.2
Muleshoe  07:10 AM 33.5 33.8 -0.3 27 27 0 2.7
Morton  07:10 AM 32.4 34.3 -1.9 24.5 24.8 -0.2 2.2
Comanche Springs  07:10 AM 38.6 37 1.6 26.5 27.9 -1.4 2.9
O'Donnell  07:10 AM 33.6 35.6 -2 24.2 19.4 4.8 2.3
Seagraves  07:10 AM 33 35.6 -2.6 24.6 23 1.7 2.1
Amherst  07:10 AM 33.2 34 -0.8 25.7 25.3 0.4 2.3
Plains  07:10 AM 31.2 35 -3.9 24.5 24.6 -0.1 2.4
Lamesa  07:10 AM 35.4 37 -1.6 25.3 19.2 6.1 2.3
Hart  07:10 AM 33 32.2 0.9 25.4 25.9 -0.5 2.2
Friona  07:10 AM 31.3 31.7 -0.4 24.8 24.3 0.4 2
Dimmitt  07:10 AM 32.5 32.1 0.3 25.4 25 0.4 2
Tulia  07:10 AM 34 33.9 0.1 24.5 20.7 3.8 2.3
Silverton  07:10 AM 34.3 34.8 -0.5 24.3 20.3 4 2.3
Post  07:10 AM 36.5 38 -1.5 21.7 20.2 1.5 2.7
Seminole  07:10 AM 34.6 36.4 -1.7 24.6 22.1 2.6 2.4
Gail  07:10 AM 37.6 39.3 -1.7 21.2 20.8 0.4 2.3
White River Lake  07:10 AM 36.7 36.8 -0.2 21.4 20.5 0.9 2.5
Graham  07:10 AM 35.4 37.6 -2.2 20.8 19.1 1.7 2.3
Sundown  07:10 AM 31 34.8 -3.8 24 23.7 0.3 2.3
Anton  07:10 AM 32.1 34.3 -2.2 24.7 25 -0.2 2.8
Fluvanna  07:10 AM 36.1 38.6 -2.5 21.2 21.6 -0.4 2.3
Spur  07:10 AM 38.9 42.3 -3.4 23.4 22 1.4 2.6
Northwest Lubbock  07:10 AM 33.5 35 -1.6 25.6 21.7 3.9 2.8
Guthrie  07:10 AM 38.6 41 -2.4 22.6 23.6 -1 2.5
Clarendon  07:10 AM 35.3 36.7 -1.4 25.1 21.6 3.5 2.6
Paducah  07:10 AM 37.6 39.3 -1.7 24.8 26.1 -1.3 2.8
Snyder  07:10 AM 36.5 39.9 -3.4 22.4 24.1 -1.7 2.4
Memphis  07:10 AM 38 38.7 -0.7 26.4 23.9 2.5 2.7
Jayton  07:10 AM 39.4 42.1 -2.6 24 25.6 -1.6 2.8
Pampa  07:10 AM 33 34.2 -1.2 25 21.3 3.7 2.2
Aspermont  07:10 AM 38.5 39.8 -1.2 25.5 27.7 -2.2 2.9
Hereford  07:10 AM 31.3 33 -1.7 26.8 25.1 1.6 2.2
Goodlett  07:10 AM 37.8 36.5 1.3 28.5 27.8 0.7 3
McLean  07:10 AM 32.9 35.4 -2.4 25.1 22.8 2.4 2.3
Denver City  07:10 AM 32.3 35.6 -3.4 24 23.7 0.3 2.2
Lake Alan Henry  07:10 AM 37.5 39.2 -1.8 22.2 22.9 -0.7 2.7
Wolfforth  07:10 AM 32.3 34.7 -2.4 24.5 21.8 2.7 2.6
Andrews  07:10 AM 34.5 36.5 -1.9 24.2 17.3 6.9 2.2
Turkey  07:10 AM 36.9 37.8 -0.9 24.6 21.3 3.3 2.9
Childress  07:10 AM 38 38.3 -0.3 24.9 26.9 -2 2.9
Tatum  07:10 AM 29.4 33.6 -4.3 21.9 22.3 -0.4 2
Northfield  07:10 AM 38.3 39.1 -0.8 23.6 21.9 1.7 2.9
Dora  07:10 AM 30.9 31.5 -0.6 23.9 23.1 0.8 1.7
Northwest San Angelo  07:10 AM 33.4 39.4 -6 24 26 -2 3
Saint Lawrence  07:10 AM 35.7 37.4 -1.7 19.8 21.7 -1.9 2.7
Haskell  07:10 AM 37.1 36.5 0.6 28.5 29.1 -0.5 2.3
Wall  07:10 AM 35 34 0.9 23.5 22.9 0.6 3
Seymour  07:10 AM 34.8 33.5 1.3 28.7 29.4 -0.7 2.1
Knox City  07:10 AM 39.3 37.5 1.8 27.3 28.5 -1.2 2.5
Guadalupe Mtns Park  07:10 AM 30.8 32.5 -1.7 19.2 16.2 3 1.1
Caprock Canyons   07:10 AM 36.6 39.1 -2.5 24.1 19.4 4.7 3
Odell  07:10 AM 33.3 28.7 4.6 28.4 25.5 2.8 2.9
Coyanosa  07:10 AM 37.5 40.1 -2.6 17.3 13.5 3.8 2.1
Big Lake  07:10 AM 35.5 36.2 -0.6 19.2 21.5 -2.4 2.7
Junction  07:10 AM 28 28.4 -0.4 26.8 27.4 -0.6 2.7
Hobbs  07:10 AM 32 35.3 -3.3 22 21 1.1 2.1
Canadian  07:10 AM 32.9 35.8 -2.9 29.2 23.2 6 2.6
Palo Duro Canyon State Park Rim  07:10 AM 34.1 36.3 -2.2 23.5 20.5 3 2.6
Bootleg  07:10 AM 27.8 30.4 -2.6 26.8 24.1 2.7 1.4
Sterling City  07:10 AM 38.3 37.5 0.7 18.8 21.7 -2.9 2.7
Mertzon  07:10 AM 34.8 41.4 -6.6 22 23.8 -1.8 2.9
Persimmon Gap  07:10 AM 44.4 48.8 -4.4 13.6 14 -0.5 3
Weinert  07:10 AM 37.5 36.8 0.7 28.1 28.3 -0.2 2.8
Claude 12 Southwest  07:10 AM 33.1 33.7 -0.6 24.4 20.7 3.7 2.6
Amarillo 7 South Southeast  07:10 AM 33.6 36.1 -2.5 23.9 21.7 2.1 2.5
Umbarger  07:10 AM 33.3 33.4 -0.1 24.5 25.6 -1.1 2.4
Lomax  07:10 AM 34.1 38.9 -4.8 19.2 19.5 -0.3 3.2
Amarillo 9 North Northeast  07:10 AM 34.6 37.3 -2.7 24.4 23 1.4 2.4
Aiken  07:10 AM 33.7 31.5 2.2 23.5 20.1 3.5 2.5
Sweetwater  07:10 AM 34.2 37.7 -3.5 23 25.1 -2.2 2.5
Dozier  07:10 AM 37 38.2 -1.1 26.9 24.3 2.7 2.2
Amarillo 15 North Northwest  07:10 AM 34.4 36.5 -2.1 25.1 25 0.1 2.3
Menard  07:10 AM 40.2 30.5 9.7 27.1 26.6 0.4 2.5
Tarzan  07:10 AM 36.7 38 -1.3 24.2 18.7 5.5 2.4
Goodnight  07:10 AM 34.3 34.9 -0.7 24.4 20.4 4.1 2.8
Boys Ranch   07:10 AM 34.2 36.2 -2 25.9 26 -0.2 2.3
Fort McKavett  07:10 AM 33.7 34.1 -0.4 25.1 24.4 0.7 2.8
Fort Chadbourne  07:10 AM 38.7 39.7 -0.9 26.4 29.4 -3 2.7
Palo Duro Canyon State Park Floor  07:10 AM 37.1 38.2 -1.2 25.2 21.9 3.3 3
Fort Lancaster  07:10 AM 41.1 33.7 7.4 19.3 23.2 -3.9 2.8
Dell City 1N  07:10 AM 30.2 38.2 -8 22.3 18.9 3.4 1.2
Clyde  07:10 AM 35.3 39.7 -4.3 26.7 27.1 -0.4 2.4
Snyder SSW  07:10 AM 37.4 39.7 -2.3 21.9 24.3 -2.4 2.6
Panhandle  07:10 AM 33 34.2 -1.2 24.9 21.6 3.3 2.7
Vigo Park  07:10 AM 33.8 35.5 -1.7 25 21 4.1 2.2
Welch  07:10 AM 34 36.1 -2.1 24.8 20.7 4.1 2.3
Throckmorton  07:10 AM 36.2 37.4 -1.1 30.4 26.7 3.7 2.3
Sierra Blanca  07:10 AM 32.8 32.1 0.7 14.9 12.5 2.4 1.1
Fort Lewis CO  07:10 AM 17.1 16.2 0.9 2.6 1 1.6 0.9
New Home  07:10 AM 32.9 35.1 -2.2 24.5 19.8 4.7 2.4
McCamey  07:10 AM 31.6 43.1 -11.5 14.8 19.3 -4.4 3.3
Stamford  07:10 AM 36.2 36.8 -0.6 29 29.4 -0.4 2.5
Crowell  07:10 AM 37.6 35.7 1.9 29.4 28 1.3 2.8
Stinnett  07:10 AM 33.9 34.3 -0.4 24.6 23.1 1.6 2
Colorado City  07:10 AM 35.8 37.4 -1.6 22.9 25.8 -2.9 3
Happy  07:10 AM 33.8 34.6 -0.8 24.7 21.3 3.3 2.1
Endee  07:10 AM 30.9 33.6 -2.8 26.6 24.5 2.1 2
JA Ranch  07:10 AM 37.1 38.5 -1.4 25.2 21.5 3.7 2.8
Adrian  07:10 AM 29.8 31.1 -1.2 24.8 25.8 -1 1.6
Lesley  07:05 AM 38.8 40.2 -1.4 25.7 22 3.7 3.2
Earth  07:10 AM 33.7 33.4 0.3 25.9 25.3 0.6 2.2
Van Horn  07:10 AM 34.9 39.7 -4.8 18.7 15.1 3.6 1.3
Rotan  07:10 AM 37.6 40 -2.4 23.6 25.6 -2 2.7
Fritch  07:10 AM 35.8 37.9 -2.2 25.2 25 0.2 2.3
Estelline  07:10 AM 39.5 39.5 -0 25.5 24.8 0.8 3.2
Crane  07:10 AM 33.9 42 -8.1 17.6 17.1 0.4 3.2
Hackberry  07:10 AM 38.3 37.9 0.4 25.5 28.2 -2.7 3
Romero 11SSW  07:10 AM 31.7 33 -1.3 23.7 25.7 -2 1.7
Palo Duro Reservoir 1NW  07:10 AM 34.8 35.4 -0.6 25.1 24.4 0.7 1.9
South Plains 3ENE  07:10 AM 34.5 35.8 -1.3 23.7 19.7 4 2.3
Lake McClellan 2NW  07:10 AM 33.3 35.3 -2 24.8 21.5 3.3 2.2
Segovia 7SSW  07:10 AM 41.2 46.1 -4.9 36.9 41.2 -4.3 2.6
Castolon 1NW BBNP  07:10 AM 47.9 48.3 -0.4 14.2 20.7 -6.5 3.3
Smyer  07:10 AM 32.4 34.4 -2 24.5 23.8 0.7 2.7
Doole 3WNW  07:10 AM 35.5 34.3 1.2 25.7 23.7 1.9 2.7
Stratford  07:10 AM 29.4 32.9 -3.5 26 26.4 -0.4 1.6
Truscott  07:10 AM 38 37.3 0.7 28.3 28.3 -0 2.5
Hefner  07:10 AM 36.8 36.4 0.4 29.1 29.6 -0.5 2.5
Kent I10-I20 Split  07:10 AM 35.1 37.3 -2.2 20 14.2 5.7 1.5
Olton  07:10 AM 33 33 0 24.7 25.8 -1.1 2.5
McAdoo  07:10 AM 34.7 35.8 -1.2 22.1 20.4 1.8 2.4
Borger  07:10 AM 34.6 35.4 -0.8 24.9 22.4 2.5 2
Vega  07:10 AM 30.5 32.1 -1.6 25.8 25.3 0.5 2.1

West Texas Mesonet Home   Site Map/Menu  NWS Lubbock Soil Data  Daily Summary Page  24hr Precip  72hr Precip  Google Plot